Urb Torrimar Est, Puerto Rico
Current Conditions -  °F | °C
As of 11:50 AM on Wednesday 26 Nov 2014 (Local Time) from TJIG Reporting Station
Broken Clouds Broken Clouds  
Wind Chill: 84°   Ceiling: 10000
Heat Index: 91°   Visibility: 10mi
Dew Point: 73°   Wind: 18mph
Humidity: 70%   Direction: 90°E
Pressure: 30.05"   Gusts: NA
Location:  18.3866°N, 66.1135°W
Report Text: TJIG 261550Z 09016KT 10SM SCT035 BKN100 29/23 A3005 RMK RY09 IN USE ATIS G
Loading
Personal Weather Stations






























Interactive Weather Map New forecast layout! Learn more

10-Day Weather Forecast

Advertisements
Track Severe Weather on mobile